sensor_id;sensor_type;location;lat;lon;timestamp;P1;durP1;ratioP1;P2;durP2;ratioP2
7817;SDS011;3954;52.624;9.212;2023-12-07T00:00:31;18.10;;;16.30;;
7817;SDS011;3954;52.624;9.212;2023-12-07T00:02:59;17.50;;;15.73;;
7817;SDS011;3954;52.624;9.212;2023-12-07T00:05:25;20.77;;;17.00;;
7817;SDS011;3954;52.624;9.212;2023-12-07T00:07:51;19.60;;;17.57;;
7817;SDS011;3954;52.624;9.212;2023-12-07T00:10:17;20.43;;;16.67;;
7817;SDS011;3954;52.624;9.212;2023-12-07T00:12:43;20.43;;;17.20;;
7817;SDS011;3954;52.624;9.212;2023-12-07T00:15:09;18.83;;;16.93;;
7817;SDS011;3954;52.624;9.212;2023-12-07T00:17:35;19.63;;;17.53;;
7817;SDS011;3954;52.624;9.212;2023-12-07T00:20:02;20.50;;;16.67;;
7817;SDS011;3954;52.624;9.212;2023-12-07T00:22:32;23.67;;;18.20;;
7817;SDS011;3954;52.624;9.212;2023-12-07T00:24:58;19.57;;;17.00;;
7817;SDS011;3954;52.624;9.212;2023-12-07T00:27:24;19.60;;;17.50;;
7817;SDS011;3954;52.624;9.212;2023-12-07T00:29:50;19.03;;;16.63;;
7817;SDS011;3954;52.624;9.212;2023-12-07T00:32:16;18.33;;;16.53;;
7817;SDS011;3954;52.624;9.212;2023-12-07T00:34:42;18.17;;;16.27;;
7817;SDS011;3954;52.624;9.212;2023-12-07T00:37:09;19.57;;;16.87;;
7817;SDS011;3954;52.624;9.212;2023-12-07T00:39:35;17.07;;;15.20;;
7817;SDS011;3954;52.624;9.212;2023-12-07T00:42:02;18.03;;;16.13;;
7817;SDS011;3954;52.624;9.212;2023-12-07T00:44:28;18.53;;;16.07;;
7817;SDS011;3954;52.624;9.212;2023-12-07T00:46:54;18.83;;;16.60;;
7817;SDS011;3954;52.624;9.212;2023-12-07T00:49:20;19.30;;;17.17;;
7817;SDS011;3954;52.624;9.212;2023-12-07T00:51:46;16.87;;;15.13;;
7817;SDS011;3954;52.624;9.212;2023-12-07T00:54:13;16.30;;;14.60;;
7817;SDS011;3954;52.624;9.212;2023-12-07T00:56:39;16.77;;;14.93;;
7817;SDS011;3954;52.624;9.212;2023-12-07T00:59:05;16.00;;;14.33;;
7817;SDS011;3954;52.624;9.212;2023-12-07T01:01:32;16.10;;;14.40;;
7817;SDS011;3954;52.624;9.212;2023-12-07T01:03:58;17.07;;;15.30;;
7817;SDS011;3954;52.624;9.212;2023-12-07T01:06:23;16.90;;;15.10;;
7817;SDS011;3954;52.624;9.212;2023-12-07T01:08:49;16.33;;;14.70;;
7817;SDS011;3954;52.624;9.212;2023-12-07T01:11:17;17.77;;;15.67;;
7817;SDS011;3954;52.624;9.212;2023-12-07T01:13:43;17.33;;;15.57;;
7817;SDS011;3954;52.624;9.212;2023-12-07T01:16:09;17.07;;;14.57;;
7817;SDS011;3954;52.624;9.212;2023-12-07T01:18:35;16.43;;;14.73;;
7817;SDS011;3954;52.624;9.212;2023-12-07T01:21:01;15.83;;;14.17;;
7817;SDS011;3954;52.624;9.212;2023-12-07T01:23:27;16.40;;;14.60;;
7817;SDS011;3954;52.624;9.212;2023-12-07T01:25:53;17.13;;;14.90;;
7817;SDS011;3954;52.624;9.212;2023-12-07T01:28:20;19.97;;;15.57;;
7817;SDS011;3954;52.624;9.212;2023-12-07T01:30:46;17.03;;;15.23;;
7817;SDS011;3954;52.624;9.212;2023-12-07T01:33:12;17.60;;;15.80;;
7817;SDS011;3954;52.624;9.212;2023-12-07T01:35:38;17.77;;;15.97;;
7817;SDS011;3954;52.624;9.212;2023-12-07T01:38:04;22.40;;;17.23;;
7817;SDS011;3954;52.624;9.212;2023-12-07T01:40:30;19.43;;;16.37;;
7817;SDS011;3954;52.624;9.212;2023-12-07T01:42:56;18.17;;;16.27;;
7817;SDS011;3954;52.624;9.212;2023-12-07T01:45:23;19.63;;;16.57;;
7817;SDS011;3954;52.624;9.212;2023-12-07T01:47:49;17.17;;;15.23;;
7817;SDS011;3954;52.624;9.212;2023-12-07T01:50:15;18.37;;;16.40;;
7817;SDS011;3954;52.624;9.212;2023-12-07T01:52:43;18.97;;;16.13;;
7817;SDS011;3954;52.624;9.212;2023-12-07T01:55:10;18.40;;;16.40;;
7817;SDS011;3954;52.624;9.212;2023-12-07T01:57:36;18.57;;;16.13;;
7817;SDS011;3954;52.624;9.212;2023-12-07T02:00:02;18.17;;;16.03;;
7817;SDS011;3954;52.624;9.212;2023-12-07T02:02:33;18.17;;;16.37;;
7817;SDS011;3954;52.624;9.212;2023-12-07T02:04:59;18.23;;;16.43;;
7817;SDS011;3954;52.624;9.212;2023-12-07T02:07:25;17.17;;;15.47;;
7817;SDS011;3954;52.624;9.212;2023-12-07T02:09:52;17.93;;;15.77;;
7817;SDS011;3954;52.624;9.212;2023-12-07T02:12:18;17.53;;;15.67;;
7817;SDS011;3954;52.624;9.212;2023-12-07T02:14:44;17.17;;;15.47;;
7817;SDS011;3954;52.624;9.212;2023-12-07T02:17:12;17.33;;;15.43;;
7817;SDS011;3954;52.624;9.212;2023-12-07T02:19:47;16.77;;;15.07;;
7817;SDS011;3954;52.624;9.212;2023-12-07T02:22:14;17.00;;;15.17;;
7817;SDS011;3954;52.624;9.212;2023-12-07T02:24:44;17.23;;;15.43;;
7817;SDS011;3954;52.624;9.212;2023-12-07T02:27:14;16.67;;;14.97;;
7817;SDS011;3954;52.624;9.212;2023-12-07T02:29:41;17.20;;;15.40;;
7817;SDS011;3954;52.624;9.212;2023-12-07T02:32:07;17.87;;;15.97;;
7817;SDS011;3954;52.624;9.212;2023-12-07T02:34:34;16.70;;;15.00;;
7817;SDS011;3954;52.624;9.212;2023-12-07T02:37:00;17.13;;;15.40;;
7817;SDS011;3954;52.624;9.212;2023-12-07T02:39:27;17.97;;;16.10;;
7817;SDS011;3954;52.624;9.212;2023-12-07T02:41:53;18.47;;;16.47;;
7817;SDS011;3954;52.624;9.212;2023-12-07T02:44:21;17.60;;;15.80;;
7817;SDS011;3954;52.624;9.212;2023-12-07T02:46:47;20.00;;;17.17;;
7817;SDS011;3954;52.624;9.212;2023-12-07T02:49:13;18.90;;;16.13;;
7817;SDS011;3954;52.624;9.212;2023-12-07T02:51:39;18.70;;;16.63;;
7817;SDS011;3954;52.624;9.212;2023-12-07T02:54:05;20.57;;;17.00;;
7817;SDS011;3954;52.624;9.212;2023-12-07T02:56:31;21.33;;;19.03;;
7817;SDS011;3954;52.624;9.212;2023-12-07T02:58:57;20.87;;;18.10;;
7817;SDS011;3954;52.624;9.212;2023-12-07T03:01:24;19.90;;;17.80;;
7817;SDS011;3954;52.624;9.212;2023-12-07T03:03:51;23.57;;;18.57;;
7817;SDS011;3954;52.624;9.212;2023-12-07T03:06:17;20.07;;;17.50;;
7817;SDS011;3954;52.624;9.212;2023-12-07T03:08:44;19.63;;;17.60;;
7817;SDS011;3954;52.624;9.212;2023-12-07T03:11:10;20.13;;;17.90;;
7817;SDS011;3954;52.624;9.212;2023-12-07T03:13:37;22.03;;;17.80;;
7817;SDS011;3954;52.624;9.212;2023-12-07T03:16:06;20.70;;;18.50;;
7817;SDS011;3954;52.624;9.212;2023-12-07T03:18:33;20.10;;;17.43;;
7817;SDS011;3954;52.624;9.212;2023-12-07T03:21:01;18.37;;;16.30;;
7817;SDS011;3954;52.624;9.212;2023-12-07T03:23:28;19.10;;;17.10;;
7817;SDS011;3954;52.624;9.212;2023-12-07T03:25:53;18.80;;;16.63;;
7817;SDS011;3954;52.624;9.212;2023-12-07T03:28:20;17.70;;;15.83;;
7817;SDS011;3954;52.624;9.212;2023-12-07T03:30:46;18.33;;;15.87;;
7817;SDS011;3954;52.624;9.212;2023-12-07T03:33:12;19.60;;;17.20;;
7817;SDS011;3954;52.624;9.212;2023-12-07T03:35:40;19.53;;;16.87;;
7817;SDS011;3954;52.624;9.212;2023-12-07T03:41:10;19.10;;;16.03;;
7817;SDS011;3954;52.624;9.212;2023-12-07T03:43:36;20.33;;;16.23;;
7817;SDS011;3954;52.624;9.212;2023-12-07T03:46:03;18.73;;;16.73;;
7817;SDS011;3954;52.624;9.212;2023-12-07T03:48:30;19.63;;;17.53;;
7817;SDS011;3954;52.624;9.212;2023-12-07T03:50:57;18.73;;;16.33;;
7817;SDS011;3954;52.624;9.212;2023-12-07T03:53:23;20.03;;;17.70;;
7817;SDS011;3954;52.624;9.212;2023-12-07T03:55:49;19.53;;;17.20;;
7817;SDS011;3954;52.624;9.212;2023-12-07T03:58:15;19.03;;;16.93;;
7817;SDS011;3954;52.624;9.212;2023-12-07T04:00:41;18.53;;;16.60;;
7817;SDS011;3954;52.624;9.212;2023-12-07T04:03:07;19.93;;;17.23;;
7817;SDS011;3954;52.624;9.212;2023-12-07T04:05:33;20.57;;;18.20;;
7817;SDS011;3954;52.624;9.212;2023-12-07T04:08:00;19.10;;;16.63;;
7817;SDS011;3954;52.624;9.212;2023-12-07T04:10:26;20.70;;;17.37;;
7817;SDS011;3954;52.624;9.212;2023-12-07T04:12:52;20.93;;;17.17;;
7817;SDS011;3954;52.624;9.212;2023-12-07T04:15:18;17.93;;;16.03;;
7817;SDS011;3954;52.624;9.212;2023-12-07T04:17:45;20.00;;;17.07;;
7817;SDS011;3954;52.624;9.212;2023-12-07T04:20:11;20.90;;;17.80;;
7817;SDS011;3954;52.624;9.212;2023-12-07T04:22:38;21.57;;;17.53;;
7817;SDS011;3954;52.624;9.212;2023-12-07T04:25:06;21.90;;;17.90;;
7817;SDS011;3954;52.624;9.212;2023-12-07T04:27:32;19.87;;;17.53;;
7817;SDS011;3954;52.624;9.212;2023-12-07T04:29:58;20.20;;;17.13;;
7817;SDS011;3954;52.624;9.212;2023-12-07T04:32:24;21.37;;;18.33;;
7817;SDS011;3954;52.624;9.212;2023-12-07T04:34:50;24.40;;;19.33;;
7817;SDS011;3954;52.624;9.212;2023-12-07T04:37:17;22.83;;;18.53;;
7817;SDS011;3954;52.624;9.212;2023-12-07T04:39:43;23.03;;;19.57;;
7817;SDS011;3954;52.624;9.212;2023-12-07T04:42:10;26.27;;;18.80;;
7817;SDS011;3954;52.624;9.212;2023-12-07T04:44:36;23.70;;;18.63;;
7817;SDS011;3954;52.624;9.212;2023-12-07T04:47:02;26.90;;;22.10;;
7817;SDS011;3954;52.624;9.212;2023-12-07T04:49:28;24.90;;;19.13;;
7817;SDS011;3954;52.624;9.212;2023-12-07T04:51:54;25.83;;;20.17;;
7817;SDS011;3954;52.624;9.212;2023-12-07T04:54:20;23.20;;;19.97;;
7817;SDS011;3954;52.624;9.212;2023-12-07T04:56:46;26.20;;;20.73;;
7817;SDS011;3954;52.624;9.212;2023-12-07T04:59:14;24.20;;;18.60;;
7817;SDS011;3954;52.624;9.212;2023-12-07T05:01:40;22.53;;;19.47;;
7817;SDS011;3954;52.624;9.212;2023-12-07T05:04:06;27.40;;;18.70;;
7817;SDS011;3954;52.624;9.212;2023-12-07T05:06:32;20.33;;;17.33;;
7817;SDS011;3954;52.624;9.212;2023-12-07T05:08:58;21.80;;;17.97;;
7817;SDS011;3954;52.624;9.212;2023-12-07T05:11:24;20.87;;;17.40;;
7817;SDS011;3954;52.624;9.212;2023-12-07T05:13:50;20.73;;;17.47;;
7817;SDS011;3954;52.624;9.212;2023-12-07T05:16:17;20.53;;;17.67;;
7817;SDS011;3954;52.624;9.212;2023-12-07T05:18:43;20.60;;;17.23;;
7817;SDS011;3954;52.624;9.212;2023-12-07T05:21:09;19.77;;;17.67;;
7817;SDS011;3954;52.624;9.212;2023-12-07T05:23:36;19.40;;;17.27;;
7817;SDS011;3954;52.624;9.212;2023-12-07T05:26:02;22.37;;;18.07;;
7817;SDS011;3954;52.624;9.212;2023-12-07T05:28:28;23.07;;;18.07;;
7817;SDS011;3954;52.624;9.212;2023-12-07T05:30:54;21.87;;;18.43;;
7817;SDS011;3954;52.624;9.212;2023-12-07T05:33:23;22.17;;;17.70;;
7817;SDS011;3954;52.624;9.212;2023-12-07T05:35:49;21.10;;;17.53;;
7817;SDS011;3954;52.624;9.212;2023-12-07T05:38:15;20.83;;;18.33;;
7817;SDS011;3954;52.624;9.212;2023-12-07T05:40:41;21.17;;;17.17;;
7817;SDS011;3954;52.624;9.212;2023-12-07T05:43:07;19.20;;;17.10;;
7817;SDS011;3954;52.624;9.212;2023-12-07T05:45:33;20.60;;;17.27;;
7817;SDS011;3954;52.624;9.212;2023-12-07T05:47:59;19.83;;;16.67;;
7817;SDS011;3954;52.624;9.212;2023-12-07T05:50:27;18.83;;;16.40;;
7817;SDS011;3954;52.624;9.212;2023-12-07T05:52:53;21.57;;;16.43;;
7817;SDS011;3954;52.624;9.212;2023-12-07T05:55:20;20.67;;;17.47;;
7817;SDS011;3954;52.624;9.212;2023-12-07T05:57:46;19.80;;;17.70;;
7817;SDS011;3954;52.624;9.212;2023-12-07T06:00:13;19.70;;;17.60;;
7817;SDS011;3954;52.624;9.212;2023-12-07T06:02:41;21.07;;;17.20;;
7817;SDS011;3954;52.624;9.212;2023-12-07T06:05:07;21.80;;;17.90;;
7817;SDS011;3954;52.624;9.212;2023-12-07T06:07:35;23.07;;;19.10;;
7817;SDS011;3954;52.624;9.212;2023-12-07T06:10:01;22.23;;;18.67;;
7817;SDS011;3954;52.624;9.212;2023-12-07T06:12:26;22.93;;;18.87;;
7817;SDS011;3954;52.624;9.212;2023-12-07T06:14:52;21.27;;;17.93;;
7817;SDS011;3954;52.624;9.212;2023-12-07T06:17:19;24.40;;;18.77;;
7817;SDS011;3954;52.624;9.212;2023-12-07T06:19:46;31.13;;;23.53;;
7817;SDS011;3954;52.624;9.212;2023-12-07T06:22:12;31.73;;;24.00;;
7817;SDS011;3954;52.624;9.212;2023-12-07T06:24:40;30.17;;;23.73;;
7817;SDS011;3954;52.624;9.212;2023-12-07T06:27:06;26.40;;;20.80;;
7817;SDS011;3954;52.624;9.212;2023-12-07T06:29:32;22.77;;;19.77;;
7817;SDS011;3954;52.624;9.212;2023-12-07T06:31:58;23.30;;;19.23;;
7817;SDS011;3954;52.624;9.212;2023-12-07T06:34:25;23.00;;;19.40;;
7817;SDS011;3954;52.624;9.212;2023-12-07T06:36:53;22.13;;;16.87;;
7817;SDS011;3954;52.624;9.212;2023-12-07T06:39:19;22.27;;;18.50;;
7817;SDS011;3954;52.624;9.212;2023-12-07T06:41:46;20.10;;;17.53;;
7817;SDS011;3954;52.624;9.212;2023-12-07T06:44:12;21.67;;;18.07;;
7817;SDS011;3954;52.624;9.212;2023-12-07T06:46:38;23.20;;;19.17;;
7817;SDS011;3954;52.624;9.212;2023-12-07T06:49:04;23.27;;;18.90;;
7817;SDS011;3954;52.624;9.212;2023-12-07T06:51:30;23.77;;;19.33;;
7817;SDS011;3954;52.624;9.212;2023-12-07T06:53:57;23.73;;;18.83;;
7817;SDS011;3954;52.624;9.212;2023-12-07T06:56:22;26.37;;;20.60;;
7817;SDS011;3954;52.624;9.212;2023-12-07T06:58:50;22.60;;;18.53;;
7817;SDS011;3954;52.624;9.212;2023-12-07T07:01:16;22.70;;;18.97;;
7817;SDS011;3954;52.624;9.212;2023-12-07T07:03:42;22.87;;;19.30;;
7817;SDS011;3954;52.624;9.212;2023-12-07T07:06:10;23.77;;;18.40;;
7817;SDS011;3954;52.624;9.212;2023-12-07T07:08:36;22.57;;;18.97;;
7817;SDS011;3954;52.624;9.212;2023-12-07T07:11:08;23.17;;;18.80;;
7817;SDS011;3954;52.624;9.212;2023-12-07T07:13:36;21.73;;;17.70;;
7817;SDS011;3954;52.624;9.212;2023-12-07T07:16:03;21.87;;;18.63;;
7817;SDS011;3954;52.624;9.212;2023-12-07T07:18:30;24.60;;;19.40;;
7817;SDS011;3954;52.624;9.212;2023-12-07T07:20:56;24.33;;;19.13;;
7817;SDS011;3954;52.624;9.212;2023-12-07T07:23:21;23.53;;;19.43;;
7817;SDS011;3954;52.624;9.212;2023-12-07T07:25:48;25.83;;;20.27;;
7817;SDS011;3954;52.624;9.212;2023-12-07T07:28:14;24.17;;;19.83;;
7817;SDS011;3954;52.624;9.212;2023-12-07T07:30:40;23.40;;;18.13;;
7817;SDS011;3954;52.624;9.212;2023-12-07T07:33:07;24.60;;;18.10;;
7817;SDS011;3954;52.624;9.212;2023-12-07T07:35:33;22.57;;;18.33;;
7817;SDS011;3954;52.624;9.212;2023-12-07T07:37:59;23.07;;;18.53;;
7817;SDS011;3954;52.624;9.212;2023-12-07T07:40:25;23.20;;;17.97;;
7817;SDS011;3954;52.624;9.212;2023-12-07T07:42:51;22.63;;;18.10;;
7817;SDS011;3954;52.624;9.212;2023-12-07T07:45:17;19.50;;;17.33;;
7817;SDS011;3954;52.624;9.212;2023-12-07T07:47:43;24.37;;;19.50;;
7817;SDS011;3954;52.624;9.212;2023-12-07T07:50:11;25.20;;;19.17;;
7817;SDS011;3954;52.624;9.212;2023-12-07T07:52:37;23.00;;;17.70;;
7817;SDS011;3954;52.624;9.212;2023-12-07T07:55:05;21.77;;;16.80;;
7817;SDS011;3954;52.624;9.212;2023-12-07T07:57:32;22.43;;;18.30;;
7817;SDS011;3954;52.624;9.212;2023-12-07T07:59:58;23.77;;;18.27;;
7817;SDS011;3954;52.624;9.212;2023-12-07T08:02:24;20.17;;;17.60;;
7817;SDS011;3954;52.624;9.212;2023-12-07T08:04:50;22.43;;;17.97;;
7817;SDS011;3954;52.624;9.212;2023-12-07T08:07:18;22.43;;;16.97;;
7817;SDS011;3954;52.624;9.212;2023-12-07T08:09:44;21.10;;;18.23;;
7817;SDS011;3954;52.624;9.212;2023-12-07T08:12:10;20.90;;;17.40;;
7817;SDS011;3954;52.624;9.212;2023-12-07T08:14:36;24.93;;;18.20;;
7817;SDS011;3954;52.624;9.212;2023-12-07T08:17:02;23.23;;;18.10;;
7817;SDS011;3954;52.624;9.212;2023-12-07T08:19:28;21.17;;;16.63;;
7817;SDS011;3954;52.624;9.212;2023-12-07T08:21:54;21.57;;;17.30;;
7817;SDS011;3954;52.624;9.212;2023-12-07T08:24:22;21.00;;;17.27;;
7817;SDS011;3954;52.624;9.212;2023-12-07T08:26:48;19.40;;;17.03;;
7817;SDS011;3954;52.624;9.212;2023-12-07T08:29:14;21.63;;;16.37;;
7817;SDS011;3954;52.624;9.212;2023-12-07T08:31:40;18.90;;;16.30;;
7817;SDS011;3954;52.624;9.212;2023-12-07T08:34:06;19.30;;;17.07;;
7817;SDS011;3954;52.624;9.212;2023-12-07T08:36:32;18.50;;;15.53;;
7817;SDS011;3954;52.624;9.212;2023-12-07T08:38:58;20.60;;;17.13;;
7817;SDS011;3954;52.624;9.212;2023-12-07T08:41:25;19.17;;;16.80;;
7817;SDS011;3954;52.624;9.212;2023-12-07T08:43:51;22.03;;;16.47;;
7817;SDS011;3954;52.624;9.212;2023-12-07T08:46:17;18.70;;;15.47;;
7817;SDS011;3954;52.624;9.212;2023-12-07T08:48:43;18.80;;;15.63;;
7817;SDS011;3954;52.624;9.212;2023-12-07T08:51:09;23.70;;;17.47;;
7817;SDS011;3954;52.624;9.212;2023-12-07T08:53:35;22.13;;;16.50;;
7817;SDS011;3954;52.624;9.212;2023-12-07T08:56:01;19.43;;;15.27;;
7817;SDS011;3954;52.624;9.212;2023-12-07T08:58:29;21.93;;;15.83;;
7817;SDS011;3954;52.624;9.212;2023-12-07T09:00:55;19.27;;;15.23;;
7817;SDS011;3954;52.624;9.212;2023-12-07T09:03:21;18.40;;;15.37;;
7817;SDS011;3954;52.624;9.212;2023-12-07T09:05:52;20.30;;;15.20;;
7817;SDS011;3954;52.624;9.212;2023-12-07T09:08:18;17.83;;;14.90;;
7817;SDS011;3954;52.624;9.212;2023-12-07T09:10:44;18.20;;;15.00;;
7817;SDS011;3954;52.624;9.212;2023-12-07T09:13:10;19.23;;;15.77;;
7817;SDS011;3954;52.624;9.212;2023-12-07T09:15:37;26.83;;;16.70;;
7817;SDS011;3954;52.624;9.212;2023-12-07T09:18:03;16.43;;;14.67;;
7817;SDS011;3954;52.624;9.212;2023-12-07T09:20:29;18.80;;;14.90;;
7817;SDS011;3954;52.624;9.212;2023-12-07T09:22:55;20.63;;;13.93;;
7817;SDS011;3954;52.624;9.212;2023-12-07T09:25:22;17.30;;;14.80;;
7817;SDS011;3954;52.624;9.212;2023-12-07T09:27:48;16.23;;;14.53;;
7817;SDS011;3954;52.624;9.212;2023-12-07T09:30:16;19.23;;;15.60;;
7817;SDS011;3954;52.624;9.212;2023-12-07T09:32:43;19.03;;;16.20;;
7817;SDS011;3954;52.624;9.212;2023-12-07T09:35:09;18.23;;;14.83;;
7817;SDS011;3954;52.624;9.212;2023-12-07T09:37:44;16.37;;;14.43;;
7817;SDS011;3954;52.624;9.212;2023-12-07T09:40:14;20.30;;;16.03;;
7817;SDS011;3954;52.624;9.212;2023-12-07T09:42:40;19.80;;;16.40;;
7817;SDS011;3954;52.624;9.212;2023-12-07T09:45:08;20.10;;;16.40;;
7817;SDS011;3954;52.624;9.212;2023-12-07T09:47:34;20.60;;;16.03;;
7817;SDS011;3954;52.624;9.212;2023-12-07T09:50:04;23.57;;;17.10;;
7817;SDS011;3954;52.624;9.212;2023-12-07T09:52:30;19.90;;;16.10;;
7817;SDS011;3954;52.624;9.212;2023-12-07T09:54:56;19.33;;;17.03;;
7817;SDS011;3954;52.624;9.212;2023-12-07T09:57:22;20.30;;;16.60;;
7817;SDS011;3954;52.624;9.212;2023-12-07T09:59:49;22.10;;;16.93;;
7817;SDS011;3954;52.624;9.212;2023-12-07T10:02:15;18.43;;;15.67;;
7817;SDS011;3954;52.624;9.212;2023-12-07T10:04:41;19.93;;;16.37;;
7817;SDS011;3954;52.624;9.212;2023-12-07T10:07:08;19.90;;;16.47;;
7817;SDS011;3954;52.624;9.212;2023-12-07T10:09:34;21.90;;;18.50;;
7817;SDS011;3954;52.624;9.212;2023-12-07T10:12:01;21.20;;;17.07;;
7817;SDS011;3954;52.624;9.212;2023-12-07T10:14:28;24.17;;;18.00;;
7817;SDS011;3954;52.624;9.212;2023-12-07T10:16:55;24.63;;;17.47;;
7817;SDS011;3954;52.624;9.212;2023-12-07T10:19:21;22.40;;;18.37;;
7817;SDS011;3954;52.624;9.212;2023-12-07T10:21:48;24.17;;;18.93;;
7817;SDS011;3954;52.624;9.212;2023-12-07T10:24:16;24.30;;;18.17;;
7817;SDS011;3954;52.624;9.212;2023-12-07T10:26:42;22.57;;;18.37;;
7817;SDS011;3954;52.624;9.212;2023-12-07T10:29:09;24.20;;;19.67;;
7817;SDS011;3954;52.624;9.212;2023-12-07T10:31:35;26.77;;;19.03;;
7817;SDS011;3954;52.624;9.212;2023-12-07T10:34:01;24.37;;;19.87;;
7817;SDS011;3954;52.624;9.212;2023-12-07T10:36:29;23.20;;;19.67;;
7817;SDS011;3954;52.624;9.212;2023-12-07T10:38:55;24.90;;;19.67;;
7817;SDS011;3954;52.624;9.212;2023-12-07T10:41:23;25.20;;;20.93;;
7817;SDS011;3954;52.624;9.212;2023-12-07T10:43:51;24.07;;;19.53;;
7817;SDS011;3954;52.624;9.212;2023-12-07T10:46:18;26.60;;;20.13;;
7817;SDS011;3954;52.624;9.212;2023-12-07T10:48:45;27.53;;;21.40;;
7817;SDS011;3954;52.624;9.212;2023-12-07T10:51:17;25.40;;;20.23;;
7817;SDS011;3954;52.624;9.212;2023-12-07T10:53:45;25.60;;;20.80;;
7817;SDS011;3954;52.624;9.212;2023-12-07T10:56:13;26.77;;;21.93;;
7817;SDS011;3954;52.624;9.212;2023-12-07T10:58:41;26.70;;;20.80;;
7817;SDS011;3954;52.624;9.212;2023-12-07T11:01:07;28.60;;;22.23;;
7817;SDS011;3954;52.624;9.212;2023-12-07T11:03:37;27.37;;;22.50;;
7817;SDS011;3954;52.624;9.212;2023-12-07T11:06:03;34.80;;;25.00;;
7817;SDS011;3954;52.624;9.212;2023-12-07T11:08:33;29.80;;;22.87;;
7817;SDS011;3954;52.624;9.212;2023-12-07T11:11:03;27.47;;;22.07;;
7817;SDS011;3954;52.624;9.212;2023-12-07T11:13:30;26.60;;;21.57;;
7817;SDS011;3954;52.624;9.212;2023-12-07T11:15:59;28.03;;;22.63;;
7817;SDS011;3954;52.624;9.212;2023-12-07T11:18:26;30.20;;;23.93;;
7817;SDS011;3954;52.624;9.212;2023-12-07T11:20:52;27.27;;;22.57;;
7817;SDS011;3954;52.624;9.212;2023-12-07T11:23:18;30.67;;;23.67;;
7817;SDS011;3954;52.624;9.212;2023-12-07T11:25:44;32.57;;;24.03;;
7817;SDS011;3954;52.624;9.212;2023-12-07T11:28:11;35.17;;;25.43;;
7817;SDS011;3954;52.624;9.212;2023-12-07T11:30:37;34.73;;;26.13;;
7817;SDS011;3954;52.624;9.212;2023-12-07T11:33:06;32.50;;;24.30;;
7817;SDS011;3954;52.624;9.212;2023-12-07T11:35:32;33.97;;;25.50;;
7817;SDS011;3954;52.624;9.212;2023-12-07T11:38:02;31.50;;;23.60;;
7817;SDS011;3954;52.624;9.212;2023-12-07T11:40:30;26.43;;;20.97;;
7817;SDS011;3954;52.624;9.212;2023-12-07T11:42:57;28.23;;;23.47;;
7817;SDS011;3954;52.624;9.212;2023-12-07T11:45:35;26.30;;;20.67;;
7817;SDS011;3954;52.624;9.212;2023-12-07T11:48:09;27.37;;;22.13;;
7817;SDS011;3954;52.624;9.212;2023-12-07T11:50:36;27.00;;;21.13;;
7817;SDS011;3954;52.624;9.212;2023-12-07T11:53:02;26.53;;;22.10;;
7817;SDS011;3954;52.624;9.212;2023-12-07T11:55:28;27.77;;;21.80;;
7817;SDS011;3954;52.624;9.212;2023-12-07T11:57:57;29.43;;;21.50;;
7817;SDS011;3954;52.624;9.212;2023-12-07T12:00:23;30.00;;;22.20;;
7817;SDS011;3954;52.624;9.212;2023-12-07T12:02:50;28.37;;;22.00;;
7817;SDS011;3954;52.624;9.212;2023-12-07T12:05:18;28.03;;;21.90;;
7817;SDS011;3954;52.624;9.212;2023-12-07T12:07:44;28.73;;;22.07;;
7817;SDS011;3954;52.624;9.212;2023-12-07T12:10:10;29.20;;;21.37;;
7817;SDS011;3954;52.624;9.212;2023-12-07T12:12:37;31.23;;;22.60;;
7817;SDS011;3954;52.624;9.212;2023-12-07T12:15:05;26.67;;;20.87;;
7817;SDS011;3954;52.624;9.212;2023-12-07T12:17:31;28.93;;;21.57;;
7817;SDS011;3954;52.624;9.212;2023-12-07T12:19:57;30.40;;;23.13;;
7817;SDS011;3954;52.624;9.212;2023-12-07T12:22:25;26.37;;;20.90;;
7817;SDS011;3954;52.624;9.212;2023-12-07T12:24:51;28.13;;;21.40;;
7817;SDS011;3954;52.624;9.212;2023-12-07T12:27:17;28.00;;;22.60;;
7817;SDS011;3954;52.624;9.212;2023-12-07T12:29:43;27.70;;;21.87;;
7817;SDS011;3954;52.624;9.212;2023-12-07T12:32:10;26.97;;;20.67;;
7817;SDS011;3954;52.624;9.212;2023-12-07T12:34:36;31.83;;;22.70;;
7817;SDS011;3954;52.624;9.212;2023-12-07T12:37:02;34.27;;;23.27;;
7817;SDS011;3954;52.624;9.212;2023-12-07T12:39:31;30.67;;;22.83;;
7817;SDS011;3954;52.624;9.212;2023-12-07T12:41:57;30.23;;;22.37;;
7817;SDS011;3954;52.624;9.212;2023-12-07T12:44:24;31.93;;;23.37;;
7817;SDS011;3954;52.624;9.212;2023-12-07T12:46:50;30.50;;;22.73;;
7817;SDS011;3954;52.624;9.212;2023-12-07T12:49:16;31.20;;;22.23;;
7817;SDS011;3954;52.624;9.212;2023-12-07T12:51:43;36.60;;;24.00;;
7817;SDS011;3954;52.624;9.212;2023-12-07T12:54:09;31.10;;;23.03;;
7817;SDS011;3954;52.624;9.212;2023-12-07T12:56:37;36.50;;;23.30;;
7817;SDS011;3954;52.624;9.212;2023-12-07T12:59:03;38.03;;;23.13;;
7817;SDS011;3954;52.624;9.212;2023-12-07T13:01:29;31.93;;;23.67;;
7817;SDS011;3954;52.624;9.212;2023-12-07T13:03:56;32.77;;;23.43;;
7817;SDS011;3954;52.624;9.212;2023-12-07T13:06:22;34.93;;;24.47;;
7817;SDS011;3954;52.624;9.212;2023-12-07T13:08:50;36.10;;;24.70;;
7817;SDS011;3954;52.624;9.212;2023-12-07T13:11:16;37.00;;;24.83;;
7817;SDS011;3954;52.624;9.212;2023-12-07T13:13:44;37.50;;;25.47;;
7817;SDS011;3954;52.624;9.212;2023-12-07T13:16:10;35.07;;;25.90;;
7817;SDS011;3954;52.624;9.212;2023-12-07T13:18:39;32.57;;;22.73;;
7817;SDS011;3954;52.624;9.212;2023-12-07T13:21:06;39.53;;;25.57;;
7817;SDS011;3954;52.624;9.212;2023-12-07T13:23:32;30.20;;;22.27;;
7817;SDS011;3954;52.624;9.212;2023-12-07T13:25:58;36.33;;;24.53;;
7817;SDS011;3954;52.624;9.212;2023-12-07T13:28:24;34.27;;;23.60;;
7817;SDS011;3954;52.624;9.212;2023-12-07T13:30:51;32.47;;;22.17;;
7817;SDS011;3954;52.624;9.212;2023-12-07T13:33:19;36.10;;;22.17;;
7817;SDS011;3954;52.624;9.212;2023-12-07T13:35:45;26.63;;;20.37;;
7817;SDS011;3954;52.624;9.212;2023-12-07T13:38:11;29.00;;;20.77;;
7817;SDS011;3954;52.624;9.212;2023-12-07T13:40:37;28.77;;;20.37;;
7817;SDS011;3954;52.624;9.212;2023-12-07T13:43:03;28.00;;;18.63;;
7817;SDS011;3954;52.624;9.212;2023-12-07T13:45:29;28.50;;;20.03;;
7817;SDS011;3954;52.624;9.212;2023-12-07T13:47:56;28.50;;;20.17;;
7817;SDS011;3954;52.624;9.212;2023-12-07T13:50:23;28.97;;;19.80;;
7817;SDS011;3954;52.624;9.212;2023-12-07T13:52:50;24.70;;;18.50;;
7817;SDS011;3954;52.624;9.212;2023-12-07T13:55:16;24.53;;;18.17;;
7817;SDS011;3954;52.624;9.212;2023-12-07T13:57:42;27.97;;;18.50;;
7817;SDS011;3954;52.624;9.212;2023-12-07T14:00:08;29.03;;;18.80;;
7817;SDS011;3954;52.624;9.212;2023-12-07T14:02:37;23.97;;;17.93;;
7817;SDS011;3954;52.624;9.212;2023-12-07T14:05:05;28.10;;;18.97;;
7817;SDS011;3954;52.624;9.212;2023-12-07T14:07:31;27.90;;;19.17;;
7817;SDS011;3954;52.624;9.212;2023-12-07T14:09:57;25.57;;;17.97;;
7817;SDS011;3954;52.624;9.212;2023-12-07T14:12:23;25.50;;;18.03;;
7817;SDS011;3954;52.624;9.212;2023-12-07T14:14:50;24.20;;;17.73;;
7817;SDS011;3954;52.624;9.212;2023-12-07T14:17:16;28.13;;;19.07;;
7817;SDS011;3954;52.624;9.212;2023-12-07T14:19:46;27.07;;;17.90;;
7817;SDS011;3954;52.624;9.212;2023-12-07T14:22:14;24.00;;;17.90;;
7817;SDS011;3954;52.624;9.212;2023-12-07T14:24:40;24.83;;;17.27;;
7817;SDS011;3954;52.624;9.212;2023-12-07T14:27:06;27.20;;;18.10;;
7817;SDS011;3954;52.624;9.212;2023-12-07T14:29:33;25.73;;;18.33;;
7817;SDS011;3954;52.624;9.212;2023-12-07T14:31:59;26.10;;;18.70;;
7817;SDS011;3954;52.624;9.212;2023-12-07T14:34:25;23.10;;;17.27;;
7817;SDS011;3954;52.624;9.212;2023-12-07T14:36:52;24.17;;;17.40;;
7817;SDS011;3954;52.624;9.212;2023-12-07T14:39:19;25.33;;;18.20;;
7817;SDS011;3954;52.624;9.212;2023-12-07T14:41:46;22.73;;;16.73;;
7817;SDS011;3954;52.624;9.212;2023-12-07T14:44:13;27.73;;;18.37;;
7817;SDS011;3954;52.624;9.212;2023-12-07T14:46:40;25.37;;;18.80;;